createdAt,value
2018-07-01T00:03:23.897Z,0.60
2018-07-01T00:08:27.151Z,0.53
2018-07-01T00:13:30.414Z,0.67
2018-07-01T00:18:33.755Z,0.70
2018-07-01T00:23:37.084Z,0.40
2018-07-01T00:28:40.349Z,0.40
2018-07-01T00:33:43.597Z,0.60
2018-07-01T00:38:46.866Z,0.67
2018-07-01T00:43:50.129Z,0.50
2018-07-01T00:48:53.409Z,0.80
2018-07-01T00:53:56.660Z,0.87
2018-07-01T00:58:59.915Z,0.80
2018-07-01T01:04:03.178Z,0.87
2018-07-01T01:09:09.685Z,0.70
2018-07-01T01:14:12.675Z,0.70
2018-07-01T01:19:15.952Z,0.70
2018-07-01T01:24:19.208Z,0.70
2018-07-01T01:29:22.213Z,0.80
2018-07-01T01:34:25.496Z,0.90
2018-07-01T01:39:34.266Z,0.77
2018-07-01T01:44:48.378Z,0.70
2018-07-01T01:49:55.877Z,0.80
2018-07-01T01:55:38.518Z,0.70
2018-07-01T02:00:50.259Z,0.70
2018-07-01T02:06:30.668Z,0.90
2018-07-01T02:11:37.150Z,0.67
2018-07-01T02:16:44.183Z,0.80
2018-07-01T02:21:47.460Z,0.63
2018-07-01T02:26:50.891Z,0.73
2018-07-01T02:31:54.188Z,0.70
2018-07-01T02:36:57.475Z,0.87
2018-07-01T02:42:00.731Z,0.80
2018-07-01T02:47:04.001Z,0.90
2018-07-01T02:52:07.700Z,0.87
2018-07-01T02:57:11.011Z,0.90
2018-07-01T03:02:14.285Z,1.10
2018-07-01T03:07:17.360Z,1.00
2018-07-01T03:12:21.466Z,0.67
2018-07-01T03:17:25.469Z,0.70
2018-07-01T03:22:28.868Z,0.77
2018-07-01T03:27:32.132Z,0.90
2018-07-01T03:32:35.383Z,0.70
2018-07-01T03:37:38.393Z,0.97
2018-07-01T03:42:41.650Z,0.93
2018-07-01T03:47:44.939Z,0.70
2018-07-01T03:52:48.287Z,0.90
2018-07-01T03:57:52.683Z,0.97
2018-07-01T04:02:55.729Z,1.00
2018-07-01T04:07:59.010Z,0.93
2018-07-01T04:13:02.292Z,0.90
2018-07-01T04:18:05.706Z,1.00
2018-07-01T04:23:09.267Z,0.70
2018-07-01T04:28:12.585Z,0.73
2018-07-01T04:33:15.848Z,0.90
2018-07-01T04:38:19.123Z,0.83
2018-07-01T04:43:22.251Z,0.83
2018-07-01T04:48:25.512Z,0.80
2018-07-01T04:53:28.775Z,0.87
2018-07-01T04:58:32.025Z,0.90
2018-07-01T05:03:35.301Z,0.90
2018-07-01T05:08:38.545Z,1.37
2018-07-01T05:13:41.795Z,2.27
2018-07-01T05:18:45.068Z,1.70
2018-07-01T05:23:48.324Z,0.87
2018-07-01T05:28:51.780Z,0.90
2018-07-01T05:33:55.752Z,0.80
2018-07-01T05:38:58.886Z,0.70
2018-07-01T05:44:02.569Z,0.90
2018-07-01T05:49:05.860Z,0.87
2018-07-01T05:54:09.437Z,0.70
2018-07-01T05:59:12.732Z,0.60
2018-07-01T06:04:16.000Z,0.77
2018-07-01T06:09:19.379Z,0.60
2018-07-01T06:14:22.650Z,0.40
2018-07-01T06:19:25.725Z,0.60
2018-07-01T06:24:28.995Z,0.50
2018-07-01T06:29:32.265Z,0.60
2018-07-01T06:34:35.548Z,0.70
2018-07-01T06:39:38.795Z,0.63
2018-07-01T06:44:41.785Z,0.60
2018-07-01T06:49:45.036Z,0.50
2018-07-01T06:54:48.338Z,0.70
2018-07-01T06:59:51.622Z,0.57
2018-07-01T07:04:54.916Z,0.70
2018-07-01T07:09:57.942Z,0.43
2018-07-01T07:15:01.209Z,0.50
2018-07-01T07:20:04.498Z,0.50
2018-07-01T07:25:07.761Z,0.70
2018-07-01T07:30:11.046Z,0.60
2018-07-01T07:35:14.334Z,0.70
2018-07-01T07:40:19.169Z,0.63
2018-07-01T07:45:22.642Z,0.60
2018-07-01T07:50:25.947Z,0.50
2018-07-01T07:55:29.230Z,0.40
2018-07-01T08:00:32.588Z,0.77
2018-07-01T08:05:35.887Z,0.47
2018-07-01T08:10:39.152Z,0.60
2018-07-01T08:15:42.439Z,0.53
2018-07-01T08:20:45.696Z,0.53
2018-07-01T08:25:48.964Z,1.40
2018-07-01T08:30:52.244Z,0.57
2018-07-01T08:35:55.504Z,0.77
2018-07-01T08:40:58.806Z,0.50
2018-07-01T08:46:02.079Z,0.73
2018-07-01T08:51:05.369Z,0.50
2018-07-01T08:56:08.648Z,0.73
2018-07-01T09:01:11.908Z,0.93
2018-07-01T09:06:15.159Z,0.60
2018-07-01T09:11:18.427Z,0.60
2018-07-01T09:16:21.674Z,0.40
2018-07-01T09:21:24.943Z,0.50
2018-07-01T09:26:28.208Z,0.63
2018-07-01T09:31:38.104Z,0.90
2018-07-01T09:36:41.377Z,1.10
2018-07-01T09:41:45.640Z,0.50
2018-07-01T09:46:48.896Z,0.45
2018-07-01T09:51:51.918Z,0.35
2018-07-01T09:56:55.272Z,0.50
2018-07-01T10:01:58.649Z,0.60
2018-07-01T10:07:01.961Z,0.47
2018-07-01T10:12:06.115Z,0.50
2018-07-01T10:17:09.285Z,0.50
2018-07-01T10:22:12.672Z,0.50
2018-07-01T10:27:15.950Z,1.32
2018-07-01T10:32:19.455Z,0.60
2018-07-01T10:37:22.763Z,0.60
2018-07-01T10:42:26.065Z,0.55
2018-07-01T10:47:29.353Z,0.60
2018-07-01T10:52:32.372Z,0.50
2018-07-01T10:57:35.698Z,0.70
2018-07-01T11:02:38.950Z,0.60
2018-07-01T11:07:42.221Z,0.53
2018-07-01T11:12:45.508Z,0.60
2018-07-01T11:17:48.799Z,0.72
2018-07-01T11:22:52.085Z,0.85
2018-07-01T11:27:55.364Z,0.60
2018-07-01T11:32:58.645Z,0.50
2018-07-01T11:38:01.649Z,0.50
2018-07-01T11:43:04.725Z,0.60
2018-07-01T11:48:08.012Z,0.57
2018-07-01T11:53:11.366Z,0.60
2018-07-01T11:58:14.665Z,0.50
2018-07-01T12:03:17.947Z,0.62
2018-07-01T12:08:21.216Z,0.57
2018-07-01T12:13:24.483Z,0.70
2018-07-01T12:18:27.772Z,0.60
2018-07-01T12:23:31.149Z,0.60
2018-07-01T12:28:34.336Z,0.47
2018-07-01T12:33:37.733Z,0.53
2018-07-01T12:38:40.992Z,0.50
2018-07-01T12:43:44.255Z,0.60
2018-07-01T12:48:47.525Z,0.80
2018-07-01T12:53:50.769Z,0.60
2018-07-01T12:58:54.064Z,0.50
2018-07-01T13:03:57.352Z,0.60
2018-07-01T13:09:00.640Z,0.55
2018-07-01T13:14:04.252Z,0.42
2018-07-01T13:19:07.588Z,0.40
2018-07-01T13:24:10.994Z,0.60
2018-07-01T13:29:14.272Z,0.47
2018-07-01T13:34:17.705Z,0.70
2018-07-01T13:39:20.716Z,0.60
2018-07-01T13:44:23.728Z,0.60
2018-07-01T13:49:26.996Z,0.50
2018-07-01T13:54:30.275Z,0.60
2018-07-01T13:59:33.524Z,0.60
2018-07-01T14:04:36.787Z,0.40
2018-07-01T14:09:40.118Z,0.50
2018-07-01T14:14:43.343Z,0.50
2018-07-01T14:19:46.640Z,0.60
2018-07-01T14:24:49.895Z,0.70
2018-07-01T14:29:53.168Z,0.80
2018-07-01T14:34:56.428Z,0.70
2018-07-01T14:39:59.692Z,0.98
2018-07-01T14:45:02.972Z,0.60
2018-07-01T14:50:06.257Z,0.80
2018-07-01T14:55:09.545Z,0.60
2018-07-01T15:00:12.824Z,0.70
2018-07-01T15:05:16.124Z,0.60
2018-07-01T15:10:19.406Z,0.80
2018-07-01T15:15:22.663Z,0.60
2018-07-01T15:20:25.983Z,0.50
2018-07-01T15:25:29.262Z,0.90
2018-07-01T15:30:32.525Z,0.60
2018-07-01T15:35:35.781Z,0.50
2018-07-01T15:40:39.023Z,0.97
2018-07-01T15:45:42.306Z,0.50
2018-07-01T15:50:45.592Z,0.60
2018-07-01T15:55:48.602Z,0.60
2018-07-01T16:00:52.028Z,0.73
2018-07-01T16:05:55.503Z,0.70
2018-07-01T16:10:58.503Z,0.70
2018-07-01T16:16:01.832Z,0.70
2018-07-01T16:21:04.842Z,0.70
2018-07-01T16:26:14.138Z,0.60
2018-07-01T16:31:17.879Z,0.53
2018-07-01T16:36:23.676Z,0.50
2018-07-01T16:41:28.911Z,0.70
2018-07-01T16:46:34.600Z,0.50
2018-07-01T16:51:39.960Z,0.60
2018-07-01T16:56:46.425Z,0.47
2018-07-01T17:01:52.518Z,0.60
2018-07-01T17:06:55.969Z,0.60
2018-07-01T17:11:59.293Z,0.50
2018-07-01T17:17:02.544Z,0.60
2018-07-01T17:22:05.815Z,0.57
2018-07-01T17:27:09.276Z,0.50
2018-07-01T17:32:17.733Z,0.50
2018-07-01T17:37:20.981Z,0.57
2018-07-01T17:42:24.316Z,0.60
2018-07-01T17:47:27.604Z,0.50
2018-07-01T17:52:32.043Z,0.50
2018-07-01T17:57:37.321Z,0.50
2018-07-01T18:02:43.732Z,0.57
2018-07-01T18:07:48.946Z,0.50
2018-07-01T18:12:52.261Z,0.53
2018-07-01T18:17:55.656Z,0.60
2018-07-01T18:23:27.414Z,0.50
2018-07-01T18:28:15.019Z,1.20
2018-07-01T18:33:06.552Z,0.70
2018-07-01T18:38:09.971Z,0.50
2018-07-01T18:43:13.216Z,0.50
2018-07-01T18:48:16.529Z,0.50
2018-07-01T18:53:19.821Z,0.70
2018-07-01T18:58:23.167Z,0.50
2018-07-01T19:03:26.413Z,0.50
2018-07-01T19:08:29.676Z,0.63
2018-07-01T19:13:32.952Z,0.50
2018-07-01T19:18:36.216Z,0.50
2018-07-01T19:23:39.905Z,0.50
2018-07-01T19:28:43.911Z,0.43
2018-07-01T19:33:47.251Z,0.50
2018-07-01T19:38:50.787Z,0.60
2018-07-01T19:43:54.616Z,0.50
2018-07-01T19:48:57.987Z,0.50
2018-07-01T19:54:01.250Z,0.50
2018-07-01T19:59:04.507Z,0.40
2018-07-01T20:04:07.791Z,0.60
2018-07-01T20:09:10.975Z,0.50
2018-07-01T20:14:14.246Z,0.43
2018-07-01T20:19:17.608Z,0.50
2018-07-01T20:24:20.884Z,0.50
2018-07-01T20:29:24.163Z,0.40
2018-07-01T20:34:27.415Z,0.40
2018-07-01T20:39:30.695Z,0.40
2018-07-01T20:44:33.707Z,0.50
2018-07-01T20:49:36.711Z,0.40
2018-07-01T20:54:39.711Z,0.50
2018-07-01T20:59:43.051Z,0.47
2018-07-01T21:04:46.313Z,0.50
2018-07-01T21:09:49.594Z,0.50
2018-07-01T21:14:52.853Z,0.40
2018-07-01T21:19:55.848Z,0.57
2018-07-01T21:24:59.091Z,0.60
2018-07-01T21:30:02.089Z,0.47
2018-07-01T21:35:05.555Z,0.60
2018-07-01T21:40:08.848Z,0.37
2018-07-01T21:45:12.103Z,0.50
2018-07-01T21:50:15.431Z,0.27
2018-07-01T21:55:18.664Z,0.40
2018-07-01T22:00:27.487Z,0.67
2018-07-01T22:05:30.879Z,0.50
2018-07-01T22:10:45.680Z,0.80
2018-07-01T22:16:00.394Z,0.57
2018-07-01T22:21:03.688Z,0.40
2018-07-01T22:26:06.985Z,0.60
2018-07-01T22:31:10.246Z,0.60
2018-07-01T22:36:13.262Z,0.60
2018-07-01T22:46:26.188Z,0.70
2018-07-01T22:51:29.751Z,0.57
2018-07-01T22:56:33.502Z,0.70
2018-07-01T23:01:44.871Z,0.50
2018-07-01T23:06:48.135Z,0.50
2018-07-01T23:11:51.412Z,0.67
2018-07-01T23:16:54.679Z,0.70
2018-07-01T23:21:57.951Z,0.80
2018-07-01T23:27:01.231Z,0.53
2018-07-01T23:32:04.515Z,0.80
2018-07-01T23:37:07.811Z,0.60
2018-07-01T23:42:11.071Z,4.77
2018-07-01T23:47:14.348Z,6.87
2018-07-01T23:52:18.307Z,4.43
2018-07-01T23:57:21.562Z,3.93
